sensor_id;sensor_type;location;lat;lon;timestamp;P1;durP1;ratioP1;P2;durP2;ratioP2
1174;SDS011;576;48.418;10.074;2022-08-03T00:02:17;2.90;;;2.30;;
1174;SDS011;576;48.418;10.074;2022-08-03T00:04:46;2.63;;;2.43;;
1174;SDS011;576;48.418;10.074;2022-08-03T00:07:15;2.13;;;2.03;;
1174;SDS011;576;48.418;10.074;2022-08-03T00:09:45;2.47;;;2.27;;
1174;SDS011;576;48.418;10.074;2022-08-03T00:12:13;2.20;;;2.10;;
1174;SDS011;576;48.418;10.074;2022-08-03T00:14:41;2.63;;;2.50;;
1174;SDS011;576;48.418;10.074;2022-08-03T00:17:10;2.40;;;2.30;;
1174;SDS011;576;48.418;10.074;2022-08-03T00:19:39;2.77;;;2.57;;
1174;SDS011;576;48.418;10.074;2022-08-03T00:22:07;2.17;;;2.07;;
1174;SDS011;576;48.418;10.074;2022-08-03T00:24:35;2.40;;;2.30;;
1174;SDS011;576;48.418;10.074;2022-08-03T00:27:05;2.30;;;2.20;;
1174;SDS011;576;48.418;10.074;2022-08-03T00:29:33;2.30;;;2.20;;
1174;SDS011;576;48.418;10.074;2022-08-03T00:32:21;2.40;;;2.30;;
1174;SDS011;576;48.418;10.074;2022-08-03T00:34:50;2.60;;;2.50;;
1174;SDS011;576;48.418;10.074;2022-08-03T00:37:24;2.10;;;2.00;;
1174;SDS011;576;48.418;10.074;2022-08-03T00:40:08;2.57;;;2.40;;
1174;SDS011;576;48.418;10.074;2022-08-03T00:42:49;2.40;;;2.30;;
1174;SDS011;576;48.418;10.074;2022-08-03T00:45:19;2.40;;;2.30;;
1174;SDS011;576;48.418;10.074;2022-08-03T00:47:50;2.50;;;2.30;;
1174;SDS011;576;48.418;10.074;2022-08-03T00:50:19;2.30;;;2.20;;
1174;SDS011;576;48.418;10.074;2022-08-03T00:52:49;1.80;;;1.70;;
1174;SDS011;576;48.418;10.074;2022-08-03T00:55:19;2.27;;;2.17;;
1174;SDS011;576;48.418;10.074;2022-08-03T00:57:49;2.17;;;2.07;;
1174;SDS011;576;48.418;10.074;2022-08-03T01:00:18;1.90;;;1.80;;
1174;SDS011;576;48.418;10.074;2022-08-03T01:02:48;2.27;;;2.17;;
1174;SDS011;576;48.418;10.074;2022-08-03T01:05:17;2.80;;;2.60;;
1174;SDS011;576;48.418;10.074;2022-08-03T01:07:50;2.10;;;2.00;;
1174;SDS011;576;48.418;10.074;2022-08-03T01:10:31;2.53;;;2.33;;
1174;SDS011;576;48.418;10.074;2022-08-03T01:13:12;2.10;;;2.00;;
1174;SDS011;576;48.418;10.074;2022-08-03T01:16:08;2.70;;;2.50;;
1174;SDS011;576;48.418;10.074;2022-08-03T01:19:06;2.60;;;2.40;;
1174;SDS011;576;48.418;10.074;2022-08-03T01:21:51;2.70;;;2.60;;
1174;SDS011;576;48.418;10.074;2022-08-03T01:24:30;2.47;;;2.27;;
1174;SDS011;576;48.418;10.074;2022-08-03T01:27:07;2.60;;;2.47;;
1174;SDS011;576;48.418;10.074;2022-08-03T01:32:36;2.50;;;2.30;;
1174;SDS011;576;48.418;10.074;2022-08-03T01:35:28;2.30;;;2.17;;
1174;SDS011;576;48.418;10.074;2022-08-03T01:38:05;2.20;;;2.10;;
1174;SDS011;576;48.418;10.074;2022-08-03T01:40:37;2.37;;;2.27;;
1174;SDS011;576;48.418;10.074;2022-08-03T01:43:08;2.30;;;2.20;;
1174;SDS011;576;48.418;10.074;2022-08-03T01:46:01;2.63;;;2.43;;
1174;SDS011;576;48.418;10.074;2022-08-03T01:48:30;2.30;;;2.20;;
1174;SDS011;576;48.418;10.074;2022-08-03T01:50:59;2.90;;;2.70;;
1174;SDS011;576;48.418;10.074;2022-08-03T01:53:28;2.60;;;2.50;;
1174;SDS011;576;48.418;10.074;2022-08-03T01:56:00;2.30;;;2.20;;
1174;SDS011;576;48.418;10.074;2022-08-03T01:58:32;2.63;;;2.43;;
1174;SDS011;576;48.418;10.074;2022-08-03T02:01:04;2.40;;;2.10;;
1174;SDS011;576;48.418;10.074;2022-08-03T02:04:12;2.60;;;2.50;;
1174;SDS011;576;48.418;10.074;2022-08-03T02:06:43;2.70;;;2.37;;
1174;SDS011;576;48.418;10.074;2022-08-03T02:09:26;1.90;;;1.80;;
1174;SDS011;576;48.418;10.074;2022-08-03T02:11:56;2.43;;;2.33;;
1174;SDS011;576;48.418;10.074;2022-08-03T02:14:26;2.70;;;2.60;;
1174;SDS011;576;48.418;10.074;2022-08-03T02:16:56;2.80;;;2.60;;
1174;SDS011;576;48.418;10.074;2022-08-03T02:19:24;4.30;;;2.20;;
1174;SDS011;576;48.418;10.074;2022-08-03T02:22:01;2.17;;;2.00;;
1174;SDS011;576;48.418;10.074;2022-08-03T02:24:30;2.50;;;2.30;;
1174;SDS011;576;48.418;10.074;2022-08-03T02:26:58;2.30;;;2.20;;
1174;SDS011;576;48.418;10.074;2022-08-03T02:29:28;2.50;;;2.40;;
1174;SDS011;576;48.418;10.074;2022-08-03T02:32:09;2.40;;;2.30;;
1174;SDS011;576;48.418;10.074;2022-08-03T02:34:43;2.23;;;2.13;;
1174;SDS011;576;48.418;10.074;2022-08-03T02:37:15;2.20;;;2.10;;
1174;SDS011;576;48.418;10.074;2022-08-03T02:39:45;2.10;;;2.00;;
1174;SDS011;576;48.418;10.074;2022-08-03T02:42:17;2.30;;;2.20;;
1174;SDS011;576;48.418;10.074;2022-08-03T02:44:48;2.33;;;2.20;;
1174;SDS011;576;48.418;10.074;2022-08-03T02:47:21;2.63;;;2.43;;
1174;SDS011;576;48.418;10.074;2022-08-03T02:49:50;1.93;;;1.80;;
1174;SDS011;576;48.418;10.074;2022-08-03T02:52:21;2.57;;;2.37;;
1174;SDS011;576;48.418;10.074;2022-08-03T02:54:52;2.50;;;2.40;;
1174;SDS011;576;48.418;10.074;2022-08-03T02:57:24;1.70;;;1.60;;
1174;SDS011;576;48.418;10.074;2022-08-03T02:59:54;2.50;;;2.30;;
1174;SDS011;576;48.418;10.074;2022-08-03T03:02:25;2.00;;;1.90;;
1174;SDS011;576;48.418;10.074;2022-08-03T03:04:55;2.60;;;2.50;;
1174;SDS011;576;48.418;10.074;2022-08-03T03:07:44;2.17;;;2.07;;
1174;SDS011;576;48.418;10.074;2022-08-03T03:10:18;2.00;;;1.90;;
1174;SDS011;576;48.418;10.074;2022-08-03T03:12:49;2.30;;;2.20;;
1174;SDS011;576;48.418;10.074;2022-08-03T03:15:18;1.83;;;1.73;;
1174;SDS011;576;48.418;10.074;2022-08-03T03:17:48;2.83;;;2.30;;
1174;SDS011;576;48.418;10.074;2022-08-03T03:20:18;2.13;;;2.03;;
1174;SDS011;576;48.418;10.074;2022-08-03T03:22:57;2.10;;;2.00;;
1174;SDS011;576;48.418;10.074;2022-08-03T03:25:26;2.20;;;2.10;;
1174;SDS011;576;48.418;10.074;2022-08-03T03:27:57;2.57;;;2.40;;
1174;SDS011;576;48.418;10.074;2022-08-03T03:30:26;4.90;;;2.33;;
1174;SDS011;576;48.418;10.074;2022-08-03T03:32:57;2.73;;;2.53;;
1174;SDS011;576;48.418;10.074;2022-08-03T03:35:26;2.50;;;2.30;;
1174;SDS011;576;48.418;10.074;2022-08-03T03:37:54;1.90;;;1.80;;
1174;SDS011;576;48.418;10.074;2022-08-03T03:40:23;2.73;;;2.53;;
1174;SDS011;576;48.418;10.074;2022-08-03T03:42:52;1.87;;;1.77;;
1174;SDS011;576;48.418;10.074;2022-08-03T03:45:20;2.53;;;2.33;;
1174;SDS011;576;48.418;10.074;2022-08-03T03:47:49;2.40;;;2.20;;
1174;SDS011;576;48.418;10.074;2022-08-03T03:50:19;2.23;;;2.10;;
1174;SDS011;576;48.418;10.074;2022-08-03T03:52:49;2.10;;;2.00;;
1174;SDS011;576;48.418;10.074;2022-08-03T03:55:17;2.40;;;2.30;;
1174;SDS011;576;48.418;10.074;2022-08-03T03:57:46;2.37;;;2.17;;
1174;SDS011;576;48.418;10.074;2022-08-03T04:00:14;2.33;;;2.23;;
1174;SDS011;576;48.418;10.074;2022-08-03T04:02:44;3.97;;;2.23;;
1174;SDS011;576;48.418;10.074;2022-08-03T04:05:13;2.40;;;2.30;;
1174;SDS011;576;48.418;10.074;2022-08-03T04:08:02;2.27;;;2.07;;
1174;SDS011;576;48.418;10.074;2022-08-03T04:10:53;2.50;;;2.30;;
1174;SDS011;576;48.418;10.074;2022-08-03T04:13:30;2.13;;;2.03;;
1174;SDS011;576;48.418;10.074;2022-08-03T04:16:01;2.03;;;1.90;;
1174;SDS011;576;48.418;10.074;2022-08-03T04:18:32;2.23;;;2.03;;
1174;SDS011;576;48.418;10.074;2022-08-03T04:21:03;2.67;;;2.57;;
1174;SDS011;576;48.418;10.074;2022-08-03T04:23:58;2.80;;;2.60;;
1174;SDS011;576;48.418;10.074;2022-08-03T04:26:29;2.57;;;2.40;;
1174;SDS011;576;48.418;10.074;2022-08-03T04:29:00;3.70;;;2.50;;
1174;SDS011;576;48.418;10.074;2022-08-03T04:31:35;2.30;;;2.20;;
1174;SDS011;576;48.418;10.074;2022-08-03T04:34:05;2.37;;;2.17;;
1174;SDS011;576;48.418;10.074;2022-08-03T04:36:36;2.30;;;2.20;;
1174;SDS011;576;48.418;10.074;2022-08-03T04:39:13;2.67;;;2.57;;
1174;SDS011;576;48.418;10.074;2022-08-03T04:41:47;2.27;;;2.03;;
1174;SDS011;576;48.418;10.074;2022-08-03T04:44:34;2.50;;;2.30;;
1174;SDS011;576;48.418;10.074;2022-08-03T04:47:05;2.20;;;2.10;;
1174;SDS011;576;48.418;10.074;2022-08-03T04:49:34;2.63;;;2.27;;
1174;SDS011;576;48.418;10.074;2022-08-03T04:52:04;2.63;;;2.43;;
1174;SDS011;576;48.418;10.074;2022-08-03T04:54:40;2.30;;;2.20;;
1174;SDS011;576;48.418;10.074;2022-08-03T04:57:16;2.00;;;1.90;;
1174;SDS011;576;48.418;10.074;2022-08-03T04:59:48;2.30;;;2.20;;
1174;SDS011;576;48.418;10.074;2022-08-03T05:02:27;2.33;;;2.13;;
1174;SDS011;576;48.418;10.074;2022-08-03T05:04:55;2.40;;;2.30;;
1174;SDS011;576;48.418;10.074;2022-08-03T05:07:23;3.10;;;2.90;;
1174;SDS011;576;48.418;10.074;2022-08-03T05:10:04;2.77;;;2.40;;
1174;SDS011;576;48.418;10.074;2022-08-03T05:12:41;2.50;;;2.30;;
1174;SDS011;576;48.418;10.074;2022-08-03T05:15:09;2.13;;;2.00;;
1174;SDS011;576;48.418;10.074;2022-08-03T05:17:38;3.00;;;2.80;;
1174;SDS011;576;48.418;10.074;2022-08-03T05:20:07;2.37;;;2.27;;
1174;SDS011;576;48.418;10.074;2022-08-03T05:22:36;2.30;;;2.10;;
1174;SDS011;576;48.418;10.074;2022-08-03T05:25:06;2.87;;;2.67;;
1174;SDS011;576;48.418;10.074;2022-08-03T05:27:42;2.40;;;2.30;;
1174;SDS011;576;48.418;10.074;2022-08-03T05:30:11;2.70;;;2.60;;
1174;SDS011;576;48.418;10.074;2022-08-03T05:32:58;3.40;;;2.80;;
1174;SDS011;576;48.418;10.074;2022-08-03T05:35:26;2.57;;;2.47;;
1174;SDS011;576;48.418;10.074;2022-08-03T05:38:15;2.40;;;2.20;;
1174;SDS011;576;48.418;10.074;2022-08-03T05:40:55;2.17;;;1.97;;
1174;SDS011;576;48.418;10.074;2022-08-03T05:44:09;2.20;;;2.10;;
1174;SDS011;576;48.418;10.074;2022-08-03T05:46:38;2.10;;;2.00;;
1174;SDS011;576;48.418;10.074;2022-08-03T05:49:06;2.70;;;2.50;;
1174;SDS011;576;48.418;10.074;2022-08-03T05:51:34;2.20;;;2.10;;
1174;SDS011;576;48.418;10.074;2022-08-03T05:54:02;2.50;;;2.30;;
1174;SDS011;576;48.418;10.074;2022-08-03T05:56:32;2.97;;;2.77;;
1174;SDS011;576;48.418;10.074;2022-08-03T05:59:00;2.13;;;2.03;;
1174;SDS011;576;48.418;10.074;2022-08-03T06:01:49;2.40;;;2.30;;
1174;SDS011;576;48.418;10.074;2022-08-03T06:04:17;2.33;;;2.23;;
1174;SDS011;576;48.418;10.074;2022-08-03T06:06:46;2.50;;;2.07;;
1174;SDS011;576;48.418;10.074;2022-08-03T06:09:16;2.57;;;2.37;;
1174;SDS011;576;48.418;10.074;2022-08-03T06:11:45;3.00;;;2.70;;
1174;SDS011;576;48.418;10.074;2022-08-03T06:14:13;2.47;;;2.37;;
1174;SDS011;576;48.418;10.074;2022-08-03T06:16:42;3.97;;;2.17;;
1174;SDS011;576;48.418;10.074;2022-08-03T06:19:10;3.10;;;2.90;;
1174;SDS011;576;48.418;10.074;2022-08-03T06:21:38;2.53;;;2.43;;
1174;SDS011;576;48.418;10.074;2022-08-03T06:24:06;2.70;;;2.50;;
1174;SDS011;576;48.418;10.074;2022-08-03T06:26:35;2.90;;;2.70;;
1174;SDS011;576;48.418;10.074;2022-08-03T06:29:04;2.23;;;2.13;;
1174;SDS011;576;48.418;10.074;2022-08-03T06:31:35;2.63;;;2.47;;
1174;SDS011;576;48.418;10.074;2022-08-03T06:34:03;2.40;;;2.30;;
1174;SDS011;576;48.418;10.074;2022-08-03T06:36:52;2.17;;;2.00;;
1174;SDS011;576;48.418;10.074;2022-08-03T06:39:27;2.37;;;2.27;;
1174;SDS011;576;48.418;10.074;2022-08-03T06:41:55;2.50;;;2.40;;
1174;SDS011;576;48.418;10.074;2022-08-03T06:44:25;2.53;;;2.43;;
1174;SDS011;576;48.418;10.074;2022-08-03T06:46:54;2.73;;;2.57;;
1174;SDS011;576;48.418;10.074;2022-08-03T06:49:22;2.83;;;2.40;;
1174;SDS011;576;48.418;10.074;2022-08-03T06:51:50;2.73;;;2.53;;
1174;SDS011;576;48.418;10.074;2022-08-03T06:54:34;2.13;;;2.03;;
1174;SDS011;576;48.418;10.074;2022-08-03T06:57:03;2.50;;;2.40;;
1174;SDS011;576;48.418;10.074;2022-08-03T06:59:34;2.60;;;2.40;;
1174;SDS011;576;48.418;10.074;2022-08-03T07:02:23;2.93;;;2.73;;
1174;SDS011;576;48.418;10.074;2022-08-03T07:04:53;2.40;;;2.20;;
1174;SDS011;576;48.418;10.074;2022-08-03T07:07:22;2.57;;;2.47;;
1174;SDS011;576;48.418;10.074;2022-08-03T07:09:50;2.30;;;2.20;;
1174;SDS011;576;48.418;10.074;2022-08-03T07:12:24;2.27;;;2.07;;
1174;SDS011;576;48.418;10.074;2022-08-03T07:14:54;2.27;;;2.10;;
1174;SDS011;576;48.418;10.074;2022-08-03T07:17:27;2.50;;;2.40;;
1174;SDS011;576;48.418;10.074;2022-08-03T07:19:56;1.90;;;1.80;;
1174;SDS011;576;48.418;10.074;2022-08-03T07:22:25;2.40;;;2.20;;
1174;SDS011;576;48.418;10.074;2022-08-03T07:24:53;2.43;;;2.23;;
1174;SDS011;576;48.418;10.074;2022-08-03T07:27:22;2.77;;;2.30;;
1174;SDS011;576;48.418;10.074;2022-08-03T07:29:52;2.03;;;1.93;;
1174;SDS011;576;48.418;10.074;2022-08-03T07:32:22;2.80;;;2.67;;
1174;SDS011;576;48.418;10.074;2022-08-03T07:34:50;2.20;;;2.10;;
1174;SDS011;576;48.418;10.074;2022-08-03T07:37:26;2.53;;;2.40;;
1174;SDS011;576;48.418;10.074;2022-08-03T07:39:55;2.00;;;1.90;;
1174;SDS011;576;48.418;10.074;2022-08-03T07:42:23;1.67;;;1.57;;
1174;SDS011;576;48.418;10.074;2022-08-03T07:44:52;2.33;;;2.13;;
1174;SDS011;576;48.418;10.074;2022-08-03T07:47:20;1.97;;;1.87;;
1174;SDS011;576;48.418;10.074;2022-08-03T07:50:01;2.40;;;2.20;;
1174;SDS011;576;48.418;10.074;2022-08-03T07:52:30;2.70;;;2.50;;
1174;SDS011;576;48.418;10.074;2022-08-03T07:55:14;2.23;;;2.10;;
1174;SDS011;576;48.418;10.074;2022-08-03T07:57:43;2.30;;;2.20;;
1174;SDS011;576;48.418;10.074;2022-08-03T08:00:13;3.00;;;2.47;;
1174;SDS011;576;48.418;10.074;2022-08-03T08:02:44;2.70;;;2.50;;
1174;SDS011;576;48.418;10.074;2022-08-03T08:05:12;2.20;;;2.10;;
1174;SDS011;576;48.418;10.074;2022-08-03T08:07:41;2.23;;;2.13;;
1174;SDS011;576;48.418;10.074;2022-08-03T08:10:16;3.80;;;3.03;;
1174;SDS011;576;48.418;10.074;2022-08-03T08:12:44;2.00;;;1.90;;
1174;SDS011;576;48.418;10.074;2022-08-03T08:15:13;2.00;;;1.90;;
1174;SDS011;576;48.418;10.074;2022-08-03T08:17:44;2.77;;;2.60;;
1174;SDS011;576;48.418;10.074;2022-08-03T08:20:18;2.50;;;2.40;;
1174;SDS011;576;48.418;10.074;2022-08-03T08:22:54;2.97;;;2.27;;
1174;SDS011;576;48.418;10.074;2022-08-03T08:25:23;2.33;;;2.23;;
1174;SDS011;576;48.418;10.074;2022-08-03T08:27:52;2.53;;;2.33;;
1174;SDS011;576;48.418;10.074;2022-08-03T08:30:41;2.10;;;2.00;;
1174;SDS011;576;48.418;10.074;2022-08-03T08:33:10;2.33;;;2.10;;
1174;SDS011;576;48.418;10.074;2022-08-03T08:35:50;2.40;;;2.20;;
1174;SDS011;576;48.418;10.074;2022-08-03T08:38:20;2.10;;;2.00;;
1174;SDS011;576;48.418;10.074;2022-08-03T08:40:48;2.13;;;2.03;;
1174;SDS011;576;48.418;10.074;2022-08-03T08:43:17;2.30;;;2.17;;
1174;SDS011;576;48.418;10.074;2022-08-03T08:45:46;1.80;;;1.70;;
1174;SDS011;576;48.418;10.074;2022-08-03T08:48:19;1.93;;;1.83;;
1174;SDS011;576;48.418;10.074;2022-08-03T08:50:52;2.30;;;2.20;;
1174;SDS011;576;48.418;10.074;2022-08-03T08:53:23;2.63;;;2.43;;
1174;SDS011;576;48.418;10.074;2022-08-03T08:55:54;2.40;;;2.30;;
1174;SDS011;576;48.418;10.074;2022-08-03T08:58:28;2.30;;;2.20;;
1174;SDS011;576;48.418;10.074;2022-08-03T09:00:56;4.40;;;2.50;;
1174;SDS011;576;48.418;10.074;2022-08-03T09:03:27;2.40;;;2.30;;
1174;SDS011;576;48.418;10.074;2022-08-03T09:05:57;5.03;;;2.33;;
1174;SDS011;576;48.418;10.074;2022-08-03T09:08:27;2.70;;;2.50;;
1174;SDS011;576;48.418;10.074;2022-08-03T09:10:57;2.53;;;2.13;;
1174;SDS011;576;48.418;10.074;2022-08-03T09:13:25;2.37;;;2.27;;
1174;SDS011;576;48.418;10.074;2022-08-03T09:18:48;2.43;;;2.30;;
1174;SDS011;576;48.418;10.074;2022-08-03T09:21:24;2.30;;;2.20;;
1174;SDS011;576;48.418;10.074;2022-08-03T09:23:58;3.00;;;2.80;;
1174;SDS011;576;48.418;10.074;2022-08-03T09:26:31;2.17;;;2.07;;
1174;SDS011;576;48.418;10.074;2022-08-03T09:29:03;2.30;;;2.13;;
1174;SDS011;576;48.418;10.074;2022-08-03T09:31:41;4.80;;;2.20;;
1174;SDS011;576;48.418;10.074;2022-08-03T09:34:13;2.40;;;2.20;;
1174;SDS011;576;48.418;10.074;2022-08-03T09:36:43;2.50;;;2.30;;
1174;SDS011;576;48.418;10.074;2022-08-03T09:39:12;2.40;;;2.30;;
1174;SDS011;576;48.418;10.074;2022-08-03T09:41:42;2.30;;;2.10;;
1174;SDS011;576;48.418;10.074;2022-08-03T09:44:12;3.70;;;2.17;;
1174;SDS011;576;48.418;10.074;2022-08-03T09:46:52;3.30;;;2.40;;
1174;SDS011;576;48.418;10.074;2022-08-03T09:49:23;2.47;;;2.27;;
1174;SDS011;576;48.418;10.074;2022-08-03T09:51:52;1.93;;;1.83;;
1174;SDS011;576;48.418;10.074;2022-08-03T09:54:41;2.30;;;2.10;;
1174;SDS011;576;48.418;10.074;2022-08-03T09:57:20;2.33;;;2.23;;
1174;SDS011;576;48.418;10.074;2022-08-03T09:59:49;2.43;;;2.27;;
1174;SDS011;576;48.418;10.074;2022-08-03T10:02:37;2.50;;;2.40;;
1174;SDS011;576;48.418;10.074;2022-08-03T10:05:09;2.90;;;2.00;;
1174;SDS011;576;48.418;10.074;2022-08-03T10:07:46;2.27;;;2.10;;
1174;SDS011;576;48.418;10.074;2022-08-03T10:10:17;2.03;;;1.93;;
1174;SDS011;576;48.418;10.074;2022-08-03T10:12:57;1.70;;;1.60;;
1174;SDS011;576;48.418;10.074;2022-08-03T10:15:27;2.60;;;2.40;;
1174;SDS011;576;48.418;10.074;2022-08-03T10:18:15;2.10;;;1.90;;
1174;SDS011;576;48.418;10.074;2022-08-03T10:20:48;2.27;;;2.07;;
1174;SDS011;576;48.418;10.074;2022-08-03T10:27:18;1.90;;;1.80;;
1174;SDS011;576;48.418;10.074;2022-08-03T10:29:50;1.67;;;1.57;;
1174;SDS011;576;48.418;10.074;2022-08-03T10:35:15;1.90;;;1.80;;
1174;SDS011;576;48.418;10.074;2022-08-03T10:37:51;1.73;;;1.63;;
1174;SDS011;576;48.418;10.074;2022-08-03T10:40:26;2.53;;;1.97;;
1174;SDS011;576;48.418;10.074;2022-08-03T10:43:17;1.80;;;1.70;;
1174;SDS011;576;48.418;10.074;2022-08-03T10:45:48;1.90;;;1.80;;
1174;SDS011;576;48.418;10.074;2022-08-03T10:48:17;2.27;;;2.10;;
1174;SDS011;576;48.418;10.074;2022-08-03T10:50:47;1.83;;;1.73;;
1174;SDS011;576;48.418;10.074;2022-08-03T10:53:18;2.27;;;2.07;;
1174;SDS011;576;48.418;10.074;2022-08-03T10:56:02;4.00;;;2.00;;
1174;SDS011;576;48.418;10.074;2022-08-03T10:59:06;1.70;;;1.60;;
1174;SDS011;576;48.418;10.074;2022-08-03T11:01:49;2.00;;;1.90;;
1174;SDS011;576;48.418;10.074;2022-08-03T11:04:26;1.60;;;1.50;;
1174;SDS011;576;48.418;10.074;2022-08-03T11:07:17;1.53;;;1.43;;
1174;SDS011;576;48.418;10.074;2022-08-03T11:09:49;1.80;;;1.70;;
1174;SDS011;576;48.418;10.074;2022-08-03T11:12:20;1.90;;;1.80;;
1174;SDS011;576;48.418;10.074;2022-08-03T11:14:57;1.60;;;1.50;;
1174;SDS011;576;48.418;10.074;2022-08-03T11:17:27;1.53;;;1.43;;
1174;SDS011;576;48.418;10.074;2022-08-03T11:19:55;1.90;;;1.80;;
1174;SDS011;576;48.418;10.074;2022-08-03T11:22:24;2.03;;;1.93;;
1174;SDS011;576;48.418;10.074;2022-08-03T11:25:14;2.00;;;1.90;;
1174;SDS011;576;48.418;10.074;2022-08-03T11:30:52;1.60;;;1.50;;
1174;SDS011;576;48.418;10.074;2022-08-03T11:33:29;1.53;;;1.43;;
1174;SDS011;576;48.418;10.074;2022-08-03T11:35:58;2.70;;;1.90;;
1174;SDS011;576;48.418;10.074;2022-08-03T11:38:30;1.20;;;1.20;;
1174;SDS011;576;48.418;10.074;2022-08-03T11:40:59;1.20;;;1.20;;
1174;SDS011;576;48.418;10.074;2022-08-03T11:43:42;1.90;;;1.70;;
1174;SDS011;576;48.418;10.074;2022-08-03T11:46:12;1.90;;;1.80;;
1174;SDS011;576;48.418;10.074;2022-08-03T11:49:00;1.33;;;1.30;;
1174;SDS011;576;48.418;10.074;2022-08-03T11:51:36;1.77;;;1.50;;
1174;SDS011;576;48.418;10.074;2022-08-03T11:54:05;1.70;;;1.60;;
1174;SDS011;576;48.418;10.074;2022-08-03T11:56:45;1.60;;;1.50;;
1174;SDS011;576;48.418;10.074;2022-08-03T11:59:15;1.30;;;1.20;;
1174;SDS011;576;48.418;10.074;2022-08-03T12:01:48;1.70;;;1.60;;
1174;SDS011;576;48.418;10.074;2022-08-03T12:04:16;1.40;;;1.40;;
1174;SDS011;576;48.418;10.074;2022-08-03T12:06:56;1.87;;;1.77;;
1174;SDS011;576;48.418;10.074;2022-08-03T12:09:28;1.43;;;1.33;;
1174;SDS011;576;48.418;10.074;2022-08-03T12:11:59;2.00;;;1.90;;
1174;SDS011;576;48.418;10.074;2022-08-03T12:14:27;1.47;;;1.40;;
1174;SDS011;576;48.418;10.074;2022-08-03T12:17:16;1.30;;;1.30;;
1174;SDS011;576;48.418;10.074;2022-08-03T12:19:45;4.03;;;3.63;;
1174;SDS011;576;48.418;10.074;2022-08-03T12:22:13;1.83;;;1.63;;
1174;SDS011;576;48.418;10.074;2022-08-03T12:24:42;5.40;;;1.30;;
1174;SDS011;576;48.418;10.074;2022-08-03T12:27:22;2.00;;;1.47;;
1174;SDS011;576;48.418;10.074;2022-08-03T12:29:51;1.73;;;1.63;;
1174;SDS011;576;48.418;10.074;2022-08-03T12:32:24;1.67;;;1.57;;
1174;SDS011;576;48.418;10.074;2022-08-03T12:34:53;1.20;;;1.10;;
1174;SDS011;576;48.418;10.074;2022-08-03T12:37:27;1.47;;;1.37;;
1174;SDS011;576;48.418;10.074;2022-08-03T12:39:56;1.60;;;1.53;;
1174;SDS011;576;48.418;10.074;2022-08-03T12:42:37;1.70;;;1.60;;
1174;SDS011;576;48.418;10.074;2022-08-03T12:45:22;2.03;;;1.40;;
1174;SDS011;576;48.418;10.074;2022-08-03T12:47:54;1.80;;;1.70;;
1174;SDS011;576;48.418;10.074;2022-08-03T12:50:28;1.73;;;1.63;;
1174;SDS011;576;48.418;10.074;2022-08-03T12:52:58;1.43;;;1.33;;
1174;SDS011;576;48.418;10.074;2022-08-03T12:55:27;1.60;;;1.50;;
1174;SDS011;576;48.418;10.074;2022-08-03T12:58:30;1.80;;;1.70;;
1174;SDS011;576;48.418;10.074;2022-08-03T13:01:01;1.60;;;1.50;;
1174;SDS011;576;48.418;10.074;2022-08-03T13:03:39;1.40;;;1.40;;
1174;SDS011;576;48.418;10.074;2022-08-03T13:06:16;1.60;;;1.50;;
1174;SDS011;576;48.418;10.074;2022-08-03T13:08:45;2.40;;;1.47;;
1174;SDS011;576;48.418;10.074;2022-08-03T13:11:18;1.57;;;1.47;;
1174;SDS011;576;48.418;10.074;2022-08-03T13:14:12;1.50;;;1.40;;
1174;SDS011;576;48.418;10.074;2022-08-03T13:16:46;1.50;;;1.40;;
1174;SDS011;576;48.418;10.074;2022-08-03T13:19:15;1.73;;;1.63;;
1174;SDS011;576;48.418;10.074;2022-08-03T13:21:43;1.50;;;1.40;;
1174;SDS011;576;48.418;10.074;2022-08-03T13:24:30;1.57;;;1.47;;
1174;SDS011;576;48.418;10.074;2022-08-03T13:26:59;2.20;;;1.40;;
1174;SDS011;576;48.418;10.074;2022-08-03T13:29:49;1.57;;;1.40;;
1174;SDS011;576;48.418;10.074;2022-08-03T13:32:18;1.60;;;1.50;;
1174;SDS011;576;48.418;10.074;2022-08-03T13:34:46;2.00;;;1.47;;
1174;SDS011;576;48.418;10.074;2022-08-03T13:37:15;1.10;;;1.10;;
1174;SDS011;576;48.418;10.074;2022-08-03T13:39:43;1.60;;;1.50;;
1174;SDS011;576;48.418;10.074;2022-08-03T13:42:25;1.67;;;1.57;;
1174;SDS011;576;48.418;10.074;2022-08-03T13:44:55;1.80;;;1.70;;
1174;SDS011;576;48.418;10.074;2022-08-03T13:47:24;1.60;;;1.50;;
1174;SDS011;576;48.418;10.074;2022-08-03T13:49:53;1.70;;;1.60;;
1174;SDS011;576;48.418;10.074;2022-08-03T13:52:28;1.20;;;1.20;;
1174;SDS011;576;48.418;10.074;2022-08-03T13:54:57;1.73;;;1.63;;
1174;SDS011;576;48.418;10.074;2022-08-03T13:57:26;1.70;;;1.60;;
1174;SDS011;576;48.418;10.074;2022-08-03T14:00:16;1.40;;;1.30;;
1174;SDS011;576;48.418;10.074;2022-08-03T14:02:53;4.70;;;2.17;;
1174;SDS011;576;48.418;10.074;2022-08-03T14:05:32;1.77;;;1.63;;
1174;SDS011;576;48.418;10.074;2022-08-03T14:08:01;1.77;;;1.67;;
1174;SDS011;576;48.418;10.074;2022-08-03T14:10:32;2.10;;;2.00;;
1174;SDS011;576;48.418;10.074;2022-08-03T14:13:01;3.27;;;1.50;;
1174;SDS011;576;48.418;10.074;2022-08-03T14:15:31;2.00;;;1.90;;
1174;SDS011;576;48.418;10.074;2022-08-03T14:18:03;1.80;;;1.70;;
1174;SDS011;576;48.418;10.074;2022-08-03T14:20:31;1.70;;;1.60;;
1174;SDS011;576;48.418;10.074;2022-08-03T14:23:12;1.80;;;1.70;;
1174;SDS011;576;48.418;10.074;2022-08-03T14:25:41;1.80;;;1.70;;
1174;SDS011;576;48.418;10.074;2022-08-03T14:28:17;2.03;;;1.90;;
1174;SDS011;576;48.418;10.074;2022-08-03T14:30:47;1.70;;;1.60;;
1174;SDS011;576;48.418;10.074;2022-08-03T14:33:16;1.60;;;1.50;;
1174;SDS011;576;48.418;10.074;2022-08-03T14:35:44;1.83;;;1.73;;
1174;SDS011;576;48.418;10.074;2022-08-03T14:38:13;1.60;;;1.50;;
1174;SDS011;576;48.418;10.074;2022-08-03T14:40:41;3.80;;;1.63;;
1174;SDS011;576;48.418;10.074;2022-08-03T14:43:10;1.40;;;1.40;;
1174;SDS011;576;48.418;10.074;2022-08-03T14:45:38;1.47;;;1.40;;
1174;SDS011;576;48.418;10.074;2022-08-03T14:48:08;1.87;;;1.77;;
1174;SDS011;576;48.418;10.074;2022-08-03T14:50:57;1.50;;;1.40;;
1174;SDS011;576;48.418;10.074;2022-08-03T14:53:25;2.27;;;1.63;;
1174;SDS011;576;48.418;10.074;2022-08-03T14:55:55;1.63;;;1.50;;
1174;SDS011;576;48.418;10.074;2022-08-03T14:58:23;1.80;;;1.70;;
1174;SDS011;576;48.418;10.074;2022-08-03T15:00:53;1.30;;;1.30;;
1174;SDS011;576;48.418;10.074;2022-08-03T15:03:23;1.40;;;1.40;;
1174;SDS011;576;48.418;10.074;2022-08-03T15:05:52;1.60;;;1.50;;
1174;SDS011;576;48.418;10.074;2022-08-03T15:08:22;1.70;;;1.60;;
1174;SDS011;576;48.418;10.074;2022-08-03T15:10:51;1.50;;;1.40;;
1174;SDS011;576;48.418;10.074;2022-08-03T15:13:20;1.40;;;1.37;;
1174;SDS011;576;48.418;10.074;2022-08-03T15:15:48;2.10;;;1.90;;
1174;SDS011;576;48.418;10.074;2022-08-03T15:18:17;1.37;;;1.37;;
1174;SDS011;576;48.418;10.074;2022-08-03T15:20:47;1.87;;;1.77;;
1174;SDS011;576;48.418;10.074;2022-08-03T15:23:16;1.40;;;1.33;;
1174;SDS011;576;48.418;10.074;2022-08-03T15:25:45;1.60;;;1.50;;
1174;SDS011;576;48.418;10.074;2022-08-03T15:28:34;1.77;;;1.60;;
1174;SDS011;576;48.418;10.074;2022-08-03T15:31:06;1.67;;;1.57;;
1174;SDS011;576;48.418;10.074;2022-08-03T15:33:34;1.43;;;1.33;;
1174;SDS011;576;48.418;10.074;2022-08-03T15:36:07;1.53;;;1.43;;
1174;SDS011;576;48.418;10.074;2022-08-03T15:38:36;1.53;;;1.43;;
1174;SDS011;576;48.418;10.074;2022-08-03T15:41:04;1.60;;;1.50;;
1174;SDS011;576;48.418;10.074;2022-08-03T15:43:39;2.13;;;1.40;;
1174;SDS011;576;48.418;10.074;2022-08-03T15:46:13;1.80;;;1.70;;
1174;SDS011;576;48.418;10.074;2022-08-03T15:48:56;1.47;;;1.23;;
1174;SDS011;576;48.418;10.074;2022-08-03T15:51:26;1.63;;;1.53;;
1174;SDS011;576;48.418;10.074;2022-08-03T15:53:54;1.60;;;1.50;;
1174;SDS011;576;48.418;10.074;2022-08-03T15:56:22;1.30;;;1.30;;
1174;SDS011;576;48.418;10.074;2022-08-03T15:58:52;1.20;;;1.20;;
1174;SDS011;576;48.418;10.074;2022-08-03T16:01:38;1.97;;;1.60;;
1174;SDS011;576;48.418;10.074;2022-08-03T16:04:07;1.70;;;1.57;;
1174;SDS011;576;48.418;10.074;2022-08-03T16:06:37;1.53;;;1.43;;
1174;SDS011;576;48.418;10.074;2022-08-03T16:09:05;1.50;;;1.40;;